sensor_id;sensor_type;location;lat;lon;timestamp;P1;durP1;ratioP1;P2;durP2;ratioP2
10315;SDS011;5203;48.976;8.306;2024-02-26T00:02:17;3.88;;;2.17;;
10315;SDS011;5203;48.976;8.306;2024-02-26T00:04:43;5.07;;;2.28;;
10315;SDS011;5203;48.976;8.306;2024-02-26T00:07:09;5.95;;;2.55;;
10315;SDS011;5203;48.976;8.306;2024-02-26T00:09:35;3.63;;;2.15;;
10315;SDS011;5203;48.976;8.306;2024-02-26T00:12:02;3.42;;;2.20;;
10315;SDS011;5203;48.976;8.306;2024-02-26T00:14:31;3.30;;;2.17;;
10315;SDS011;5203;48.976;8.306;2024-02-26T00:16:57;4.03;;;2.30;;
10315;SDS011;5203;48.976;8.306;2024-02-26T00:19:23;5.20;;;2.30;;
10315;SDS011;5203;48.976;8.306;2024-02-26T00:21:48;5.38;;;2.95;;
10315;SDS011;5203;48.976;8.306;2024-02-26T00:24:14;13.50;;;4.97;;
10315;SDS011;5203;48.976;8.306;2024-02-26T00:26:40;7.70;;;2.88;;
10315;SDS011;5203;48.976;8.306;2024-02-26T00:29:05;5.40;;;1.85;;
10315;SDS011;5203;48.976;8.306;2024-02-26T00:31:31;2.78;;;2.17;;
10315;SDS011;5203;48.976;8.306;2024-02-26T00:33:56;1.70;;;1.58;;
10315;SDS011;5203;48.976;8.306;2024-02-26T00:36:22;3.58;;;2.13;;
10315;SDS011;5203;48.976;8.306;2024-02-26T00:38:48;2.67;;;1.75;;
10315;SDS011;5203;48.976;8.306;2024-02-26T00:41:19;1.90;;;1.50;;
10315;SDS011;5203;48.976;8.306;2024-02-26T00:43:45;2.88;;;1.48;;
10315;SDS011;5203;48.976;8.306;2024-02-26T00:46:11;2.25;;;1.88;;
10315;SDS011;5203;48.976;8.306;2024-02-26T00:48:37;2.35;;;2.15;;
10315;SDS011;5203;48.976;8.306;2024-02-26T00:51:03;2.22;;;1.40;;
10315;SDS011;5203;48.976;8.306;2024-02-26T00:53:32;1.88;;;1.73;;
10315;SDS011;5203;48.976;8.306;2024-02-26T00:55:58;2.00;;;1.80;;
10315;SDS011;5203;48.976;8.306;2024-02-26T00:58:24;3.00;;;2.03;;
10315;SDS011;5203;48.976;8.306;2024-02-26T01:00:50;2.95;;;2.10;;
10315;SDS011;5203;48.976;8.306;2024-02-26T01:03:17;3.63;;;1.80;;
10315;SDS011;5203;48.976;8.306;2024-02-26T01:05:42;2.80;;;2.28;;
10315;SDS011;5203;48.976;8.306;2024-02-26T01:08:08;2.28;;;1.35;;
10315;SDS011;5203;48.976;8.306;2024-02-26T01:10:34;1.65;;;1.13;;
10315;SDS011;5203;48.976;8.306;2024-02-26T01:12:59;1.05;;;1.05;;
10315;SDS011;5203;48.976;8.306;2024-02-26T01:15:25;0.80;;;0.80;;
10315;SDS011;5203;48.976;8.306;2024-02-26T01:17:51;0.70;;;0.70;;
10315;SDS011;5203;48.976;8.306;2024-02-26T01:20:17;1.25;;;1.15;;
10315;SDS011;5203;48.976;8.306;2024-02-26T01:22:43;0.95;;;0.80;;
10315;SDS011;5203;48.976;8.306;2024-02-26T01:25:09;1.00;;;1.00;;
10315;SDS011;5203;48.976;8.306;2024-02-26T01:27:36;1.20;;;0.95;;
10315;SDS011;5203;48.976;8.306;2024-02-26T01:30:02;1.10;;;1.10;;
10315;SDS011;5203;48.976;8.306;2024-02-26T01:32:29;0.98;;;0.98;;
10315;SDS011;5203;48.976;8.306;2024-02-26T01:34:55;0.88;;;0.88;;
10315;SDS011;5203;48.976;8.306;2024-02-26T01:37:20;1.05;;;1.05;;
10315;SDS011;5203;48.976;8.306;2024-02-26T01:39:46;1.38;;;1.35;;
10315;SDS011;5203;48.976;8.306;2024-02-26T01:42:12;0.80;;;0.80;;
10315;SDS011;5203;48.976;8.306;2024-02-26T01:44:37;2.17;;;1.10;;
10315;SDS011;5203;48.976;8.306;2024-02-26T01:47:03;1.30;;;0.82;;
10315;SDS011;5203;48.976;8.306;2024-02-26T01:49:33;1.70;;;1.60;;
10315;SDS011;5203;48.976;8.306;2024-02-26T01:52:00;1.73;;;1.23;;
10315;SDS011;5203;48.976;8.306;2024-02-26T01:54:26;0.90;;;0.90;;
10315;SDS011;5203;48.976;8.306;2024-02-26T01:56:52;0.68;;;0.68;;
10315;SDS011;5203;48.976;8.306;2024-02-26T01:59:19;1.83;;;1.45;;
10315;SDS011;5203;48.976;8.306;2024-02-26T02:01:45;0.93;;;0.93;;
10315;SDS011;5203;48.976;8.306;2024-02-26T02:04:15;1.23;;;1.13;;
10315;SDS011;5203;48.976;8.306;2024-02-26T02:06:41;1.50;;;1.02;;
10315;SDS011;5203;48.976;8.306;2024-02-26T02:09:09;0.88;;;0.88;;
10315;SDS011;5203;48.976;8.306;2024-02-26T02:11:35;1.38;;;1.05;;
10315;SDS011;5203;48.976;8.306;2024-02-26T02:14:00;1.00;;;1.00;;
10315;SDS011;5203;48.976;8.306;2024-02-26T02:16:26;1.05;;;0.93;;
10315;SDS011;5203;48.976;8.306;2024-02-26T02:18:52;1.30;;;1.25;;
10315;SDS011;5203;48.976;8.306;2024-02-26T02:21:17;1.05;;;1.00;;
10315;SDS011;5203;48.976;8.306;2024-02-26T02:23:43;2.03;;;0.80;;
10315;SDS011;5203;48.976;8.306;2024-02-26T02:26:11;2.42;;;1.42;;
10315;SDS011;5203;48.976;8.306;2024-02-26T02:28:38;1.38;;;1.27;;
10315;SDS011;5203;48.976;8.306;2024-02-26T02:31:05;1.60;;;1.50;;
10315;SDS011;5203;48.976;8.306;2024-02-26T02:33:31;1.48;;;1.38;;
10315;SDS011;5203;48.976;8.306;2024-02-26T02:35:58;1.67;;;1.15;;
10315;SDS011;5203;48.976;8.306;2024-02-26T02:38:23;1.95;;;1.52;;
10315;SDS011;5203;48.976;8.306;2024-02-26T02:40:51;1.27;;;1.08;;
10315;SDS011;5203;48.976;8.306;2024-02-26T02:43:17;1.25;;;0.95;;
10315;SDS011;5203;48.976;8.306;2024-02-26T02:45:43;1.65;;;0.90;;
10315;SDS011;5203;48.976;8.306;2024-02-26T02:48:08;1.52;;;1.13;;
10315;SDS011;5203;48.976;8.306;2024-02-26T02:50:35;2.03;;;1.52;;
10315;SDS011;5203;48.976;8.306;2024-02-26T02:53:01;0.90;;;0.82;;
10315;SDS011;5203;48.976;8.306;2024-02-26T02:55:27;0.80;;;0.80;;
10315;SDS011;5203;48.976;8.306;2024-02-26T02:57:53;1.85;;;1.75;;
10315;SDS011;5203;48.976;8.306;2024-02-26T03:00:18;1.30;;;1.00;;
10315;SDS011;5203;48.976;8.306;2024-02-26T03:02:44;2.40;;;2.20;;
10315;SDS011;5203;48.976;8.306;2024-02-26T03:05:11;1.80;;;1.70;;
10315;SDS011;5203;48.976;8.306;2024-02-26T03:07:37;1.40;;;1.30;;
10315;SDS011;5203;48.976;8.306;2024-02-26T03:10:03;2.22;;;1.45;;
10315;SDS011;5203;48.976;8.306;2024-02-26T03:12:29;2.00;;;1.05;;
10315;SDS011;5203;48.976;8.306;2024-02-26T03:14:55;1.40;;;1.30;;
10315;SDS011;5203;48.976;8.306;2024-02-26T03:17:21;2.35;;;1.30;;
10315;SDS011;5203;48.976;8.306;2024-02-26T03:19:46;1.45;;;1.35;;
10315;SDS011;5203;48.976;8.306;2024-02-26T03:22:13;1.20;;;0.82;;
10315;SDS011;5203;48.976;8.306;2024-02-26T03:24:38;1.35;;;1.10;;
10315;SDS011;5203;48.976;8.306;2024-02-26T03:27:04;1.98;;;1.25;;
10315;SDS011;5203;48.976;8.306;2024-02-26T03:29:34;2.15;;;1.65;;
10315;SDS011;5203;48.976;8.306;2024-02-26T03:32:01;1.55;;;1.45;;
10315;SDS011;5203;48.976;8.306;2024-02-26T03:34:26;1.13;;;1.02;;
10315;SDS011;5203;48.976;8.306;2024-02-26T03:36:52;2.58;;;1.15;;
10315;SDS011;5203;48.976;8.306;2024-02-26T03:39:18;1.63;;;1.45;;
10315;SDS011;5203;48.976;8.306;2024-02-26T03:41:44;1.45;;;1.17;;
10315;SDS011;5203;48.976;8.306;2024-02-26T03:44:10;2.55;;;1.05;;
10315;SDS011;5203;48.976;8.306;2024-02-26T03:46:37;1.52;;;1.38;;
10315;SDS011;5203;48.976;8.306;2024-02-26T03:49:02;2.55;;;1.35;;
10315;SDS011;5203;48.976;8.306;2024-02-26T03:51:28;3.22;;;1.88;;
10315;SDS011;5203;48.976;8.306;2024-02-26T03:53:56;3.92;;;3.25;;
10315;SDS011;5203;48.976;8.306;2024-02-26T03:56:23;1.60;;;1.20;;
10315;SDS011;5203;48.976;8.306;2024-02-26T03:58:49;1.85;;;1.10;;
10315;SDS011;5203;48.976;8.306;2024-02-26T04:01:14;1.38;;;1.00;;
10315;SDS011;5203;48.976;8.306;2024-02-26T04:03:40;1.63;;;1.52;;
10315;SDS011;5203;48.976;8.306;2024-02-26T04:06:10;2.90;;;1.45;;
10315;SDS011;5203;48.976;8.306;2024-02-26T04:08:36;2.00;;;1.42;;
10315;SDS011;5203;48.976;8.306;2024-02-26T04:11:03;1.85;;;1.08;;
10315;SDS011;5203;48.976;8.306;2024-02-26T04:13:35;3.35;;;1.88;;
10315;SDS011;5203;48.976;8.306;2024-02-26T04:16:03;2.60;;;1.52;;
10315;SDS011;5203;48.976;8.306;2024-02-26T04:18:32;1.50;;;1.23;;
10315;SDS011;5203;48.976;8.306;2024-02-26T04:20:58;1.60;;;1.45;;
10315;SDS011;5203;48.976;8.306;2024-02-26T04:23:24;2.47;;;2.00;;
10315;SDS011;5203;48.976;8.306;2024-02-26T04:25:50;1.70;;;1.13;;
10315;SDS011;5203;48.976;8.306;2024-02-26T04:28:15;1.20;;;1.10;;
10315;SDS011;5203;48.976;8.306;2024-02-26T04:30:41;3.38;;;1.27;;
10315;SDS011;5203;48.976;8.306;2024-02-26T04:33:06;2.40;;;1.67;;
10315;SDS011;5203;48.976;8.306;2024-02-26T04:35:32;3.08;;;1.63;;
10315;SDS011;5203;48.976;8.306;2024-02-26T04:38:00;1.40;;;1.13;;
10315;SDS011;5203;48.976;8.306;2024-02-26T04:40:25;2.45;;;2.25;;
10315;SDS011;5203;48.976;8.306;2024-02-26T04:42:51;1.50;;;1.33;;
10315;SDS011;5203;48.976;8.306;2024-02-26T04:45:17;1.83;;;1.70;;
10315;SDS011;5203;48.976;8.306;2024-02-26T04:47:42;1.45;;;1.33;;
10315;SDS011;5203;48.976;8.306;2024-02-26T04:50:08;2.20;;;1.55;;
10315;SDS011;5203;48.976;8.306;2024-02-26T04:52:34;2.13;;;1.13;;
10315;SDS011;5203;48.976;8.306;2024-02-26T04:54:59;1.52;;;1.42;;
10315;SDS011;5203;48.976;8.306;2024-02-26T04:57:25;1.80;;;1.67;;
10315;SDS011;5203;48.976;8.306;2024-02-26T04:59:51;2.00;;;1.25;;
10315;SDS011;5203;48.976;8.306;2024-02-26T05:02:17;1.70;;;0.95;;
10315;SDS011;5203;48.976;8.306;2024-02-26T05:04:43;1.42;;;1.33;;
10315;SDS011;5203;48.976;8.306;2024-02-26T05:07:08;1.73;;;1.15;;
10315;SDS011;5203;48.976;8.306;2024-02-26T05:09:34;1.70;;;1.52;;
10315;SDS011;5203;48.976;8.306;2024-02-26T05:12:00;1.60;;;1.38;;
10315;SDS011;5203;48.976;8.306;2024-02-26T05:14:26;2.47;;;1.70;;
10315;SDS011;5203;48.976;8.306;2024-02-26T05:16:52;1.67;;;1.58;;
10315;SDS011;5203;48.976;8.306;2024-02-26T05:19:18;2.67;;;1.67;;
10315;SDS011;5203;48.976;8.306;2024-02-26T05:21:43;2.58;;;2.05;;
10315;SDS011;5203;48.976;8.306;2024-02-26T05:24:09;2.00;;;1.77;;
10315;SDS011;5203;48.976;8.306;2024-02-26T05:26:35;1.92;;;1.55;;
10315;SDS011;5203;48.976;8.306;2024-02-26T05:29:01;3.35;;;1.80;;
10315;SDS011;5203;48.976;8.306;2024-02-26T05:31:26;5.47;;;2.38;;
10315;SDS011;5203;48.976;8.306;2024-02-26T05:33:53;2.45;;;1.83;;
10315;SDS011;5203;48.976;8.306;2024-02-26T05:36:20;2.78;;;1.58;;
10315;SDS011;5203;48.976;8.306;2024-02-26T05:38:47;2.58;;;1.38;;
10315;SDS011;5203;48.976;8.306;2024-02-26T05:41:16;2.08;;;1.88;;
10315;SDS011;5203;48.976;8.306;2024-02-26T05:43:47;2.08;;;1.80;;
10315;SDS011;5203;48.976;8.306;2024-02-26T05:46:20;3.22;;;2.55;;
10315;SDS011;5203;48.976;8.306;2024-02-26T05:48:46;2.97;;;2.30;;
10315;SDS011;5203;48.976;8.306;2024-02-26T05:51:13;3.92;;;2.13;;
10315;SDS011;5203;48.976;8.306;2024-02-26T05:53:38;3.28;;;1.92;;
10315;SDS011;5203;48.976;8.306;2024-02-26T05:56:05;2.63;;;2.03;;
10315;SDS011;5203;48.976;8.306;2024-02-26T05:58:31;3.90;;;2.58;;
10315;SDS011;5203;48.976;8.306;2024-02-26T06:00:56;4.50;;;3.35;;
10315;SDS011;5203;48.976;8.306;2024-02-26T06:03:22;7.55;;;3.22;;
10315;SDS011;5203;48.976;8.306;2024-02-26T06:05:48;5.50;;;2.58;;
10315;SDS011;5203;48.976;8.306;2024-02-26T06:08:13;4.63;;;2.28;;
10315;SDS011;5203;48.976;8.306;2024-02-26T06:10:39;5.95;;;3.13;;
10315;SDS011;5203;48.976;8.306;2024-02-26T06:13:05;5.50;;;2.10;;
10315;SDS011;5203;48.976;8.306;2024-02-26T06:15:30;3.10;;;2.03;;
10315;SDS011;5203;48.976;8.306;2024-02-26T06:17:56;4.47;;;3.05;;
10315;SDS011;5203;48.976;8.306;2024-02-26T06:20:21;8.80;;;6.18;;
10315;SDS011;5203;48.976;8.306;2024-02-26T06:22:47;8.63;;;3.60;;
10315;SDS011;5203;48.976;8.306;2024-02-26T06:25:13;4.35;;;2.55;;
10315;SDS011;5203;48.976;8.306;2024-02-26T06:27:38;8.65;;;4.53;;
10315;SDS011;5203;48.976;8.306;2024-02-26T06:30:04;5.63;;;3.20;;
10315;SDS011;5203;48.976;8.306;2024-02-26T06:32:30;8.98;;;5.28;;
10315;SDS011;5203;48.976;8.306;2024-02-26T06:34:56;14.43;;;6.82;;
10315;SDS011;5203;48.976;8.306;2024-02-26T06:37:21;4.35;;;3.10;;
10315;SDS011;5203;48.976;8.306;2024-02-26T06:39:47;3.28;;;1.85;;
10315;SDS011;5203;48.976;8.306;2024-02-26T06:42:13;2.67;;;2.45;;
10315;SDS011;5203;48.976;8.306;2024-02-26T06:44:38;4.07;;;3.05;;
10315;SDS011;5203;48.976;8.306;2024-02-26T06:47:05;5.30;;;4.32;;
10315;SDS011;5203;48.976;8.306;2024-02-26T06:49:31;5.18;;;4.68;;
10315;SDS011;5203;48.976;8.306;2024-02-26T06:51:56;27.83;;;17.50;;
10315;SDS011;5203;48.976;8.306;2024-02-26T06:54:22;13.52;;;8.55;;
10315;SDS011;5203;48.976;8.306;2024-02-26T06:56:48;9.07;;;5.50;;
10315;SDS011;5203;48.976;8.306;2024-02-26T06:59:13;8.05;;;5.32;;
10315;SDS011;5203;48.976;8.306;2024-02-26T07:01:40;9.50;;;6.07;;
10315;SDS011;5203;48.976;8.306;2024-02-26T07:04:06;10.45;;;6.57;;
10315;SDS011;5203;48.976;8.306;2024-02-26T07:06:32;13.95;;;6.80;;
10315;SDS011;5203;48.976;8.306;2024-02-26T07:08:58;4.00;;;2.90;;
10315;SDS011;5203;48.976;8.306;2024-02-26T07:11:23;3.38;;;2.25;;
10315;SDS011;5203;48.976;8.306;2024-02-26T07:13:52;3.88;;;3.53;;
10315;SDS011;5203;48.976;8.306;2024-02-26T07:16:17;8.73;;;7.70;;
10315;SDS011;5203;48.976;8.306;2024-02-26T07:18:43;15.52;;;11.77;;
10315;SDS011;5203;48.976;8.306;2024-02-26T07:21:09;28.15;;;12.52;;
10315;SDS011;5203;48.976;8.306;2024-02-26T07:23:36;8.43;;;4.93;;
10315;SDS011;5203;48.976;8.306;2024-02-26T07:26:02;4.07;;;2.67;;
10315;SDS011;5203;48.976;8.306;2024-02-26T07:28:27;7.28;;;3.15;;
10315;SDS011;5203;48.976;8.306;2024-02-26T07:30:53;5.63;;;3.42;;
10315;SDS011;5203;48.976;8.306;2024-02-26T07:33:18;3.22;;;1.70;;
10315;SDS011;5203;48.976;8.306;2024-02-26T07:35:44;1.92;;;1.40;;
10315;SDS011;5203;48.976;8.306;2024-02-26T07:38:10;8.27;;;5.45;;
10315;SDS011;5203;48.976;8.306;2024-02-26T07:40:37;7.72;;;5.75;;
10315;SDS011;5203;48.976;8.306;2024-02-26T07:43:03;9.77;;;8.73;;
10315;SDS011;5203;48.976;8.306;2024-02-26T07:45:29;7.70;;;6.63;;
10315;SDS011;5203;48.976;8.306;2024-02-26T07:47:54;19.80;;;12.57;;
10315;SDS011;5203;48.976;8.306;2024-02-26T07:50:20;16.35;;;11.00;;
10315;SDS011;5203;48.976;8.306;2024-02-26T07:52:46;5.78;;;5.05;;
10315;SDS011;5203;48.976;8.306;2024-02-26T07:55:11;4.72;;;2.60;;
10315;SDS011;5203;48.976;8.306;2024-02-26T07:57:37;13.75;;;8.45;;
10315;SDS011;5203;48.976;8.306;2024-02-26T08:00:06;6.50;;;5.65;;
10315;SDS011;5203;48.976;8.306;2024-02-26T08:02:34;5.32;;;3.05;;
10315;SDS011;5203;48.976;8.306;2024-02-26T08:05:00;6.38;;;3.28;;
10315;SDS011;5203;48.976;8.306;2024-02-26T08:07:25;12.68;;;8.18;;
10315;SDS011;5203;48.976;8.306;2024-02-26T08:09:51;6.53;;;4.93;;
10315;SDS011;5203;48.976;8.306;2024-02-26T08:12:17;7.20;;;5.97;;
10315;SDS011;5203;48.976;8.306;2024-02-26T08:14:42;8.48;;;5.88;;
10315;SDS011;5203;48.976;8.306;2024-02-26T08:17:09;6.80;;;4.50;;
10315;SDS011;5203;48.976;8.306;2024-02-26T08:19:34;9.73;;;5.55;;
10315;SDS011;5203;48.976;8.306;2024-02-26T08:22:00;7.20;;;5.82;;
10315;SDS011;5203;48.976;8.306;2024-02-26T08:24:26;6.30;;;4.75;;
10315;SDS011;5203;48.976;8.306;2024-02-26T08:26:53;5.13;;;3.92;;
10315;SDS011;5203;48.976;8.306;2024-02-26T08:29:19;6.93;;;4.88;;
10315;SDS011;5203;48.976;8.306;2024-02-26T08:31:44;16.25;;;9.68;;
10315;SDS011;5203;48.976;8.306;2024-02-26T08:34:10;17.65;;;11.48;;
10315;SDS011;5203;48.976;8.306;2024-02-26T08:36:36;11.90;;;7.47;;
10315;SDS011;5203;48.976;8.306;2024-02-26T08:39:01;14.70;;;9.20;;
10315;SDS011;5203;48.976;8.306;2024-02-26T08:41:27;11.05;;;7.35;;
10315;SDS011;5203;48.976;8.306;2024-02-26T08:43:53;11.93;;;6.63;;
10315;SDS011;5203;48.976;8.306;2024-02-26T08:46:19;15.95;;;8.77;;
10315;SDS011;5203;48.976;8.306;2024-02-26T08:48:45;7.63;;;4.88;;
10315;SDS011;5203;48.976;8.306;2024-02-26T08:51:11;5.13;;;4.20;;
10315;SDS011;5203;48.976;8.306;2024-02-26T08:53:38;5.10;;;3.17;;
10315;SDS011;5203;48.976;8.306;2024-02-26T08:56:04;6.30;;;4.22;;
10315;SDS011;5203;48.976;8.306;2024-02-26T08:58:30;9.65;;;7.10;;
10315;SDS011;5203;48.976;8.306;2024-02-26T09:00:56;6.90;;;3.47;;
10315;SDS011;5203;48.976;8.306;2024-02-26T09:03:22;3.20;;;2.50;;
10315;SDS011;5203;48.976;8.306;2024-02-26T09:05:48;4.53;;;2.75;;
10315;SDS011;5203;48.976;8.306;2024-02-26T09:08:14;6.25;;;3.78;;
10315;SDS011;5203;48.976;8.306;2024-02-26T09:10:40;6.18;;;3.92;;
10315;SDS011;5203;48.976;8.306;2024-02-26T09:13:05;7.53;;;6.18;;
10315;SDS011;5203;48.976;8.306;2024-02-26T09:15:31;5.82;;;2.63;;
10315;SDS011;5203;48.976;8.306;2024-02-26T09:17:57;3.72;;;3.13;;
10315;SDS011;5203;48.976;8.306;2024-02-26T09:20:23;6.07;;;4.15;;
10315;SDS011;5203;48.976;8.306;2024-02-26T09:22:49;11.52;;;4.85;;
10315;SDS011;5203;48.976;8.306;2024-02-26T09:25:16;10.27;;;3.90;;
10315;SDS011;5203;48.976;8.306;2024-02-26T09:27:44;6.32;;;3.30;;
10315;SDS011;5203;48.976;8.306;2024-02-26T09:30:10;4.85;;;2.28;;
10315;SDS011;5203;48.976;8.306;2024-02-26T09:32:37;9.35;;;5.07;;
10315;SDS011;5203;48.976;8.306;2024-02-26T09:35:03;4.20;;;2.95;;
10315;SDS011;5203;48.976;8.306;2024-02-26T09:37:29;11.05;;;4.82;;
10315;SDS011;5203;48.976;8.306;2024-02-26T09:39:55;9.60;;;5.32;;
10315;SDS011;5203;48.976;8.306;2024-02-26T09:42:21;11.75;;;5.22;;
10315;SDS011;5203;48.976;8.306;2024-02-26T09:44:51;14.02;;;6.72;;
10315;SDS011;5203;48.976;8.306;2024-02-26T09:47:23;4.78;;;3.63;;
10315;SDS011;5203;48.976;8.306;2024-02-26T09:52:17;5.45;;;3.72;;
10315;SDS011;5203;48.976;8.306;2024-02-26T09:54:48;5.45;;;3.05;;
10315;SDS011;5203;48.976;8.306;2024-02-26T09:57:14;6.57;;;4.25;;
10315;SDS011;5203;48.976;8.306;2024-02-26T09:59:42;9.77;;;4.60;;
10315;SDS011;5203;48.976;8.306;2024-02-26T10:02:08;4.80;;;3.25;;
10315;SDS011;5203;48.976;8.306;2024-02-26T10:04:39;2.80;;;1.45;;
10315;SDS011;5203;48.976;8.306;2024-02-26T10:07:10;3.63;;;2.47;;
10315;SDS011;5203;48.976;8.306;2024-02-26T10:09:36;3.50;;;2.75;;
10315;SDS011;5203;48.976;8.306;2024-02-26T10:12:02;4.25;;;2.60;;
10315;SDS011;5203;48.976;8.306;2024-02-26T10:14:29;2.92;;;1.98;;
10315;SDS011;5203;48.976;8.306;2024-02-26T10:16:55;3.40;;;1.92;;
10315;SDS011;5203;48.976;8.306;2024-02-26T10:19:25;3.20;;;2.03;;
10315;SDS011;5203;48.976;8.306;2024-02-26T10:21:58;3.60;;;2.67;;
10315;SDS011;5203;48.976;8.306;2024-02-26T10:24:28;4.35;;;2.65;;
10315;SDS011;5203;48.976;8.306;2024-02-26T10:26:55;4.38;;;2.53;;
10315;SDS011;5203;48.976;8.306;2024-02-26T10:29:21;2.92;;;2.70;;
10315;SDS011;5203;48.976;8.306;2024-02-26T10:31:48;6.53;;;5.35;;
10315;SDS011;5203;48.976;8.306;2024-02-26T10:34:15;4.28;;;3.08;;
10315;SDS011;5203;48.976;8.306;2024-02-26T10:36:41;3.38;;;3.00;;
10315;SDS011;5203;48.976;8.306;2024-02-26T10:39:07;4.75;;;3.17;;
10315;SDS011;5203;48.976;8.306;2024-02-26T10:41:33;4.72;;;2.50;;
10315;SDS011;5203;48.976;8.306;2024-02-26T10:43:59;4.72;;;2.65;;
10315;SDS011;5203;48.976;8.306;2024-02-26T10:46:25;3.15;;;2.65;;
10315;SDS011;5203;48.976;8.306;2024-02-26T10:48:51;2.92;;;2.42;;
10315;SDS011;5203;48.976;8.306;2024-02-26T10:51:23;5.25;;;2.60;;
10315;SDS011;5203;48.976;8.306;2024-02-26T10:53:54;7.60;;;2.95;;
10315;SDS011;5203;48.976;8.306;2024-02-26T10:56:24;5.65;;;2.17;;
10315;SDS011;5203;48.976;8.306;2024-02-26T10:58:52;4.10;;;2.88;;
10315;SDS011;5203;48.976;8.306;2024-02-26T11:01:19;4.57;;;2.25;;
10315;SDS011;5203;48.976;8.306;2024-02-26T11:03:46;3.33;;;2.22;;
10315;SDS011;5203;48.976;8.306;2024-02-26T11:06:13;4.20;;;2.88;;
10315;SDS011;5203;48.976;8.306;2024-02-26T11:08:40;10.27;;;5.50;;
10315;SDS011;5203;48.976;8.306;2024-02-26T11:11:06;8.93;;;4.70;;
10315;SDS011;5203;48.976;8.306;2024-02-26T11:13:32;3.13;;;1.98;;
10315;SDS011;5203;48.976;8.306;2024-02-26T11:16:03;2.63;;;1.67;;
10315;SDS011;5203;48.976;8.306;2024-02-26T11:18:29;2.05;;;1.70;;
10315;SDS011;5203;48.976;8.306;2024-02-26T11:20:56;2.42;;;1.77;;
10315;SDS011;5203;48.976;8.306;2024-02-26T11:23:22;2.08;;;1.88;;
10315;SDS011;5203;48.976;8.306;2024-02-26T11:25:49;3.10;;;1.23;;
10315;SDS011;5203;48.976;8.306;2024-02-26T11:28:17;1.83;;;1.50;;
10315;SDS011;5203;48.976;8.306;2024-02-26T11:30:46;1.77;;;0.90;;
10315;SDS011;5203;48.976;8.306;2024-02-26T11:33:13;2.92;;;1.17;;
10315;SDS011;5203;48.976;8.306;2024-02-26T11:35:40;1.30;;;0.95;;
10315;SDS011;5203;48.976;8.306;2024-02-26T11:38:06;2.28;;;1.38;;
10315;SDS011;5203;48.976;8.306;2024-02-26T11:40:33;2.03;;;1.42;;
10315;SDS011;5203;48.976;8.306;2024-02-26T11:43:03;1.23;;;0.95;;
10315;SDS011;5203;48.976;8.306;2024-02-26T11:48:14;3.72;;;2.42;;
10315;SDS011;5203;48.976;8.306;2024-02-26T11:50:43;2.08;;;0.88;;
10315;SDS011;5203;48.976;8.306;2024-02-26T11:56:12;2.13;;;0.95;;
10315;SDS011;5203;48.976;8.306;2024-02-26T11:58:58;1.35;;;0.73;;
10315;SDS011;5203;48.976;8.306;2024-02-26T12:04:04;5.43;;;1.02;;
10315;SDS011;5203;48.976;8.306;2024-02-26T12:06:44;4.13;;;1.52;;
10315;SDS011;5203;48.976;8.306;2024-02-26T12:09:11;2.00;;;0.75;;
10315;SDS011;5203;48.976;8.306;2024-02-26T12:11:38;3.05;;;1.00;;
10315;SDS011;5203;48.976;8.306;2024-02-26T12:14:05;1.90;;;1.30;;
10315;SDS011;5203;48.976;8.306;2024-02-26T12:16:36;2.55;;;1.45;;
10315;SDS011;5203;48.976;8.306;2024-02-26T12:19:08;3.88;;;1.40;;
10315;SDS011;5203;48.976;8.306;2024-02-26T12:21:35;4.00;;;1.05;;
10315;SDS011;5203;48.976;8.306;2024-02-26T12:24:10;3.67;;;1.42;;
10315;SDS011;5203;48.976;8.306;2024-02-26T12:26:43;2.33;;;1.40;;
10315;SDS011;5203;48.976;8.306;2024-02-26T12:29:09;2.25;;;1.33;;
10315;SDS011;5203;48.976;8.306;2024-02-26T12:31:36;2.55;;;1.02;;
10315;SDS011;5203;48.976;8.306;2024-02-26T12:34:03;4.70;;;1.10;;
10315;SDS011;5203;48.976;8.306;2024-02-26T12:36:29;3.47;;;1.23;;
10315;SDS011;5203;48.976;8.306;2024-02-26T12:38:55;2.90;;;1.35;;
10315;SDS011;5203;48.976;8.306;2024-02-26T12:41:22;2.47;;;1.35;;
10315;SDS011;5203;48.976;8.306;2024-02-26T12:43:48;7.15;;;2.50;;
10315;SDS011;5203;48.976;8.306;2024-02-26T12:46:13;6.82;;;2.00;;
10315;SDS011;5203;48.976;8.306;2024-02-26T12:48:42;6.25;;;1.20;;
10315;SDS011;5203;48.976;8.306;2024-02-26T12:51:10;14.38;;;5.43;;
10315;SDS011;5203;48.976;8.306;2024-02-26T12:53:37;6.68;;;2.60;;
10315;SDS011;5203;48.976;8.306;2024-02-26T12:56:03;4.10;;;1.50;;
10315;SDS011;5203;48.976;8.306;2024-02-26T12:58:31;3.08;;;1.33;;
10315;SDS011;5203;48.976;8.306;2024-02-26T13:00:57;5.93;;;1.92;;
10315;SDS011;5203;48.976;8.306;2024-02-26T13:03:23;9.30;;;3.63;;
10315;SDS011;5203;48.976;8.306;2024-02-26T13:05:49;5.60;;;3.38;;
10315;SDS011;5203;48.976;8.306;2024-02-26T13:08:18;10.40;;;5.10;;
10315;SDS011;5203;48.976;8.306;2024-02-26T13:10:45;1.63;;;1.38;;
10315;SDS011;5203;48.976;8.306;2024-02-26T13:13:14;3.35;;;2.22;;
10315;SDS011;5203;48.976;8.306;2024-02-26T13:15:43;2.70;;;2.50;;
10315;SDS011;5203;48.976;8.306;2024-02-26T13:18:10;2.92;;;1.30;;
10315;SDS011;5203;48.976;8.306;2024-02-26T13:20:36;3.88;;;1.63;;
10315;SDS011;5203;48.976;8.306;2024-02-26T13:23:05;4.32;;;1.60;;
10315;SDS011;5203;48.976;8.306;2024-02-26T13:25:32;2.05;;;1.48;;
10315;SDS011;5203;48.976;8.306;2024-02-26T13:30:34;7.00;;;1.38;;
10315;SDS011;5203;48.976;8.306;2024-02-26T13:33:07;7.78;;;2.20;;
10315;SDS011;5203;48.976;8.306;2024-02-26T13:35:37;2.50;;;1.20;;
10315;SDS011;5203;48.976;8.306;2024-02-26T13:38:04;3.00;;;1.35;;
10315;SDS011;5203;48.976;8.306;2024-02-26T13:40:31;2.88;;;1.88;;
10315;SDS011;5203;48.976;8.306;2024-02-26T13:42:57;3.30;;;1.63;;
10315;SDS011;5203;48.976;8.306;2024-02-26T13:45:23;2.42;;;1.23;;
10315;SDS011;5203;48.976;8.306;2024-02-26T13:47:49;4.28;;;1.02;;
10315;SDS011;5203;48.976;8.306;2024-02-26T13:50:14;2.83;;;1.60;;
10315;SDS011;5203;48.976;8.306;2024-02-26T13:52:41;3.17;;;1.17;;
10315;SDS011;5203;48.976;8.306;2024-02-26T13:57:33;1.92;;;1.23;;
10315;SDS011;5203;48.976;8.306;2024-02-26T13:59:59;4.65;;;1.30;;
10315;SDS011;5203;48.976;8.306;2024-02-26T14:02:24;2.22;;;0.60;;
10315;SDS011;5203;48.976;8.306;2024-02-26T14:04:50;2.28;;;1.42;;
10315;SDS011;5203;48.976;8.306;2024-02-26T14:07:16;1.30;;;0.70;;
10315;SDS011;5203;48.976;8.306;2024-02-26T14:09:42;3.35;;;2.72;;
10315;SDS011;5203;48.976;8.306;2024-02-26T14:12:09;3.35;;;2.47;;
10315;SDS011;5203;48.976;8.306;2024-02-26T14:14:35;1.80;;;1.70;;
10315;SDS011;5203;48.976;8.306;2024-02-26T14:17:03;3.45;;;1.88;;
10315;SDS011;5203;48.976;8.306;2024-02-26T14:19:29;1.50;;;1.40;;
10315;SDS011;5203;48.976;8.306;2024-02-26T14:21:55;1.88;;;0.95;;
10315;SDS011;5203;48.976;8.306;2024-02-26T14:24:20;1.65;;;1.00;;
10315;SDS011;5203;48.976;8.306;2024-02-26T14:26:46;2.97;;;0.80;;
10315;SDS011;5203;48.976;8.306;2024-02-26T14:29:11;1.33;;;1.00;;
10315;SDS011;5203;48.976;8.306;2024-02-26T14:31:37;1.15;;;0.60;;
10315;SDS011;5203;48.976;8.306;2024-02-26T14:34:03;1.65;;;1.10;;
10315;SDS011;5203;48.976;8.306;2024-02-26T14:36:28;1.42;;;1.33;;
10315;SDS011;5203;48.976;8.306;2024-02-26T14:38:54;3.20;;;1.25;;
10315;SDS011;5203;48.976;8.306;2024-02-26T14:41:20;2.05;;;1.60;;
10315;SDS011;5203;48.976;8.306;2024-02-26T14:43:45;3.13;;;1.90;;
10315;SDS011;5203;48.976;8.306;2024-02-26T14:46:11;5.85;;;0.93;;
10315;SDS011;5203;48.976;8.306;2024-02-26T14:48:37;9.77;;;1.60;;
10315;SDS011;5203;48.976;8.306;2024-02-26T14:51:03;3.17;;;1.08;;
10315;SDS011;5203;48.976;8.306;2024-02-26T14:53:31;1.90;;;1.13;;
10315;SDS011;5203;48.976;8.306;2024-02-26T14:55:57;2.20;;;1.50;;
10315;SDS011;5203;48.976;8.306;2024-02-26T14:58:23;2.90;;;1.08;;
10315;SDS011;5203;48.976;8.306;2024-02-26T15:00:48;3.25;;;1.33;;
10315;SDS011;5203;48.976;8.306;2024-02-26T15:03:14;7.65;;;1.30;;
10315;SDS011;5203;48.976;8.306;2024-02-26T15:05:41;1.70;;;1.15;;
10315;SDS011;5203;48.976;8.306;2024-02-26T15:08:07;2.17;;;1.05;;
10315;SDS011;5203;48.976;8.306;2024-02-26T15:10:40;1.80;;;0.90;;
10315;SDS011;5203;48.976;8.306;2024-02-26T15:13:12;1.58;;;0.95;;